Terminal Aerodrome Forecast
Issued by NWS

Home | Current Version | Previous Version | Text Only | Print | Product List | Glossary On
Versions: 1 2 3 4 5 6 7 8 9 10 11 12 13 14 15 16 17 18 19 20 21 22 23 24 25 26 27 28 29 30 31 32 33 34 35 36 37 38 39 40 41 42 43 44 45 46 47 48 49 50
000
FTUS43 KMKX 201459 AAA
TAFENW
TAF AMD
KENW 201459Z 2015/2112 23014G20KT P6SM VCSH FEW120 BKN250
     FM201900 25012G20KT P6SM VCTS BKN035CB
      TEMPO 2020/2022 5SM TSRA BKN030CB
     FM202300 25007KT P6SM SCT100
     FM210700 23007KT P6SM VCSH BKN040 BKN080
     FM211000 29013G21KT P6SM SCT025=

USA.gov is the U.S. government's official web portal to all federal, state and local government web resources and services.